createdAt,value
2023-05-01T00:01:06.160Z,5.20
2023-05-01T00:03:33.858Z,6.97
2023-05-01T00:06:02.152Z,4.33
2023-05-01T00:08:29.786Z,5.30
2023-05-01T00:10:57.252Z,6.43
2023-05-01T00:13:26.527Z,5.37
2023-05-01T00:15:55.704Z,6.30
2023-05-01T00:18:23.191Z,5.00
2023-05-01T00:20:50.994Z,5.10
2023-05-01T00:23:18.507Z,5.63
2023-05-01T00:25:46.031Z,6.17
2023-05-01T00:28:13.502Z,5.70
2023-05-01T00:30:42.410Z,6.80
2023-05-01T00:33:10.175Z,6.27
2023-05-01T00:35:38.031Z,6.47
2023-05-01T00:38:05.678Z,5.33
2023-05-01T00:40:33.132Z,7.73
2023-05-01T00:43:00.576Z,7.20
2023-05-01T00:45:28.172Z,7.70
2023-05-01T00:47:57.095Z,5.73
2023-05-01T00:50:24.611Z,7.23
2023-05-01T00:52:53.136Z,8.03
2023-05-01T00:55:21.476Z,6.10
2023-05-01T00:57:49.085Z,8.10
2023-05-01T01:00:17.483Z,6.57
2023-05-01T01:02:45.024Z,6.43
2023-05-01T01:05:13.956Z,7.80
2023-05-01T01:07:51.133Z,6.03
2023-05-01T01:10:28.628Z,7.67
2023-05-01T01:13:05.330Z,6.63
2023-05-01T01:15:37.029Z,6.47
2023-05-01T01:18:11.023Z,6.00
2023-05-01T01:20:45.623Z,6.90
2023-05-01T01:23:28.853Z,6.17
2023-05-01T01:26:39.146Z,6.63
2023-05-01T01:29:38.204Z,6.23
2023-05-01T01:32:20.604Z,7.73
2023-05-01T01:34:53.052Z,5.70
2023-05-01T01:37:23.908Z,6.17
2023-05-01T01:39:58.991Z,7.37
2023-05-01T01:42:31.513Z,7.20
2023-05-01T01:45:04.923Z,7.73
2023-05-01T01:47:34.812Z,6.90
2023-05-01T01:50:08.200Z,6.50
2023-05-01T01:52:38.099Z,8.00
2023-05-01T01:55:09.359Z,6.73
2023-05-01T01:57:39.575Z,7.47
2023-05-01T02:00:11.460Z,7.67
2023-05-01T02:02:40.994Z,8.10
2023-05-01T02:05:14.476Z,8.33
2023-05-01T02:07:44.262Z,7.23
2023-05-01T02:10:14.904Z,8.33
2023-05-01T02:12:45.512Z,9.67
2023-05-01T02:15:14.824Z,11.00
2023-05-01T02:17:42.816Z,10.53
2023-05-01T02:20:13.341Z,10.33
2023-05-01T02:22:41.940Z,7.77
2023-05-01T02:25:12.426Z,8.93
2023-05-01T02:27:44.681Z,8.80
2023-05-01T02:30:13.426Z,7.73
2023-05-01T02:32:41.317Z,9.70
2023-05-01T02:35:09.196Z,7.57
2023-05-01T02:37:38.661Z,7.83
2023-05-01T02:40:08.159Z,11.63
2023-05-01T02:42:36.265Z,7.90
2023-05-01T02:45:06.405Z,8.97
2023-05-01T02:47:37.869Z,9.57
2023-05-01T02:50:09.062Z,8.00
2023-05-01T02:52:38.816Z,8.33
2023-05-01T02:55:07.206Z,10.10
2023-05-01T02:57:34.755Z,8.93
2023-05-01T03:00:02.217Z,8.50
2023-05-01T03:02:29.858Z,8.27
2023-05-01T03:04:57.285Z,11.60
2023-05-01T03:07:24.746Z,10.20
2023-05-01T03:09:53.631Z,11.70
2023-05-01T03:12:21.669Z,9.87
2023-05-01T03:14:49.127Z,8.97
2023-05-01T03:17:16.568Z,11.10
2023-05-01T03:19:44.043Z,9.53
2023-05-01T03:22:11.488Z,12.00
2023-05-01T03:24:38.920Z,10.77
2023-05-01T03:27:07.824Z,11.70
2023-05-01T03:29:37.868Z,14.93
2023-05-01T03:32:05.910Z,11.30
2023-05-01T03:34:34.148Z,10.13
2023-05-01T03:37:01.590Z,10.03
2023-05-01T03:39:29.029Z,11.10
2023-05-01T03:41:56.462Z,12.40
2023-05-01T03:44:25.303Z,13.73
2023-05-01T03:46:52.829Z,13.30
2023-05-01T03:49:20.541Z,10.53
2023-05-01T03:51:47.979Z,11.67
2023-05-01T03:54:15.424Z,10.67
2023-05-01T03:56:42.882Z,10.63
2023-05-01T03:59:10.416Z,10.57
2023-05-01T04:01:39.825Z,14.27
2023-05-01T04:04:08.075Z,11.60
2023-05-01T04:06:36.167Z,10.27
2023-05-01T04:09:03.970Z,10.87
2023-05-01T04:11:31.400Z,13.13
2023-05-01T04:13:58.884Z,13.00
2023-05-01T04:16:26.465Z,12.10
2023-05-01T04:18:55.289Z,9.70
2023-05-01T04:21:22.910Z,9.67
2023-05-01T04:23:50.411Z,10.33
2023-05-01T04:26:18.071Z,10.47
2023-05-01T04:28:45.522Z,9.90
2023-05-01T04:31:13.717Z,11.00
2023-05-01T04:33:41.208Z,10.77
2023-05-01T04:36:10.057Z,12.57
2023-05-01T04:38:38.110Z,8.10
2023-05-01T04:41:06.051Z,12.60
2023-05-01T04:43:33.580Z,9.50
2023-05-01T04:46:01.037Z,9.63
2023-05-01T04:48:28.521Z,13.73
2023-05-01T04:50:56.038Z,10.40
2023-05-01T04:53:24.844Z,11.30
2023-05-01T04:55:52.356Z,10.63
2023-05-01T04:58:19.800Z,10.93
2023-05-01T05:00:47.258Z,9.77
2023-05-01T05:03:15.495Z,12.37
2023-05-01T05:05:43.080Z,11.07
2023-05-01T05:08:10.680Z,10.30
2023-05-01T05:10:39.452Z,9.10
2023-05-01T05:13:06.912Z,11.57
2023-05-01T05:15:34.360Z,11.13
2023-05-01T05:18:02.227Z,11.50
2023-05-01T05:20:29.774Z,10.53
2023-05-01T05:22:57.293Z,10.43
2023-05-01T05:25:25.285Z,9.73
2023-05-01T05:27:54.149Z,10.67
2023-05-01T05:30:21.641Z,12.33
2023-05-01T05:32:49.192Z,14.80
2023-05-01T05:35:16.940Z,12.50
2023-05-01T05:37:46.120Z,11.32
2023-05-01T05:40:14.410Z,11.98
2023-05-01T05:42:41.852Z,9.95
2023-05-01T05:45:11.219Z,10.85
2023-05-01T05:47:39.120Z,10.77
2023-05-01T05:50:07.993Z,10.20
2023-05-01T05:52:35.481Z,11.27
2023-05-01T05:55:03.001Z,9.93
2023-05-01T05:57:30.444Z,10.80
2023-05-01T05:59:58.367Z,10.38
2023-05-01T06:02:27.470Z,10.02
2023-05-01T06:04:56.410Z,12.05
2023-05-01T06:07:23.900Z,9.65
2023-05-01T06:09:51.343Z,11.00
2023-05-01T06:12:18.785Z,10.00
2023-05-01T06:14:46.741Z,9.10
2023-05-01T06:17:15.070Z,10.93
2023-05-01T06:19:43.845Z,11.20
2023-05-01T06:22:11.287Z,11.50
2023-05-01T06:24:39.727Z,12.02
2023-05-01T06:27:07.291Z,10.25
2023-05-01T06:29:34.728Z,11.77
2023-05-01T06:32:02.182Z,12.75
2023-05-01T06:34:29.629Z,10.88
2023-05-01T06:36:58.409Z,10.25
2023-05-01T06:39:25.873Z,11.68
2023-05-01T06:41:53.301Z,12.10
2023-05-01T06:44:20.803Z,11.80
2023-05-01T06:46:48.300Z,12.07
2023-05-01T06:49:15.837Z,10.98
2023-05-01T06:51:43.353Z,15.82
2023-05-01T06:54:12.334Z,9.45
2023-05-01T06:56:40.006Z,12.48
2023-05-01T06:59:07.443Z,14.30
2023-05-01T07:01:35.731Z,11.95
2023-05-01T07:04:03.939Z,10.75
2023-05-01T07:06:32.224Z,10.82
2023-05-01T07:08:59.720Z,11.95
2023-05-01T07:11:28.529Z,11.55
2023-05-01T07:13:56.338Z,12.75
2023-05-01T07:16:23.790Z,10.77
2023-05-01T07:18:51.331Z,10.50
2023-05-01T07:21:18.850Z,14.40
2023-05-01T07:23:46.337Z,12.77
2023-05-01T07:26:13.816Z,16.27
2023-05-01T07:28:42.597Z,11.15
2023-05-01T07:31:10.754Z,11.93
2023-05-01T07:33:38.266Z,10.55
2023-05-01T07:36:05.870Z,9.65
2023-05-01T07:38:33.527Z,10.65
2023-05-01T07:41:01.011Z,11.85
2023-05-01T07:43:28.446Z,13.05
2023-05-01T07:45:58.805Z,11.23
2023-05-01T07:48:26.974Z,9.15
2023-05-01T07:50:55.091Z,9.30
2023-05-01T07:53:23.447Z,9.35
2023-05-01T07:55:51.038Z,11.32
2023-05-01T07:58:18.976Z,10.40
2023-05-01T08:00:46.436Z,8.75
2023-05-01T08:03:15.351Z,9.68
2023-05-01T08:05:43.204Z,9.27
2023-05-01T08:08:10.706Z,7.70
2023-05-01T08:10:38.153Z,8.57
2023-05-01T08:13:05.592Z,6.85
2023-05-01T08:15:33.045Z,6.63
2023-05-01T08:18:00.597Z,6.28
2023-05-01T08:20:29.551Z,8.95
2023-05-01T08:22:57.005Z,8.27
2023-05-01T08:25:24.598Z,7.40
2023-05-01T08:27:52.601Z,7.05
2023-05-01T08:30:20.509Z,7.32
2023-05-01T08:32:49.170Z,7.32
2023-05-01T08:35:16.837Z,6.28
2023-05-01T08:37:45.620Z,4.95
2023-05-01T08:40:13.411Z,5.20
2023-05-01T08:42:40.866Z,6.55
2023-05-01T08:45:10.085Z,3.83
2023-05-01T08:47:39.276Z,7.15
2023-05-01T08:50:12.139Z,7.00
2023-05-01T08:52:42.091Z,7.57
2023-05-01T08:55:13.589Z,4.10
2023-05-01T08:57:46.809Z,4.53
2023-05-01T09:00:19.464Z,4.10
2023-05-01T09:02:49.357Z,4.30
2023-05-01T09:05:17.939Z,4.68
2023-05-01T09:07:46.512Z,6.95
2023-05-01T09:10:17.873Z,4.70
2023-05-01T09:12:51.665Z,4.45
2023-05-01T09:15:19.177Z,3.97
2023-05-01T09:17:46.711Z,4.55
2023-05-01T09:20:14.539Z,5.18
2023-05-01T09:22:42.117Z,6.93
2023-05-01T09:25:10.851Z,4.13
2023-05-01T09:27:40.227Z,4.03
2023-05-01T09:30:09.437Z,4.22
2023-05-01T09:32:36.945Z,5.63
2023-05-01T09:35:12.202Z,4.88
2023-05-01T09:37:40.539Z,5.78
2023-05-01T09:40:09.666Z,4.40
2023-05-01T09:42:40.697Z,5.50
2023-05-01T09:45:14.086Z,5.07
2023-05-01T09:47:42.530Z,6.65
2023-05-01T09:50:11.275Z,4.57
2023-05-01T09:52:38.801Z,4.32
2023-05-01T09:55:14.584Z,4.22
2023-05-01T09:57:45.228Z,3.60
2023-05-01T10:00:15.381Z,4.25
2023-05-01T10:02:45.212Z,5.03
2023-05-01T10:05:13.841Z,3.47
2023-05-01T10:07:42.968Z,4.43
2023-05-01T10:10:17.889Z,5.13
2023-05-01T10:12:46.730Z,4.20
2023-05-01T10:15:24.478Z,4.88
2023-05-01T10:17:52.936Z,6.35
2023-05-01T10:20:20.845Z,4.72
2023-05-01T10:22:48.847Z,6.47
2023-05-01T10:25:18.718Z,14.13
2023-05-01T10:27:48.411Z,5.28
2023-05-01T10:30:18.065Z,4.20
2023-05-01T10:32:47.254Z,4.55
2023-05-01T10:35:20.314Z,4.07
2023-05-01T10:37:49.258Z,4.78
2023-05-01T10:40:44.803Z,4.68
2023-05-01T10:43:18.356Z,3.90
2023-05-01T10:45:47.017Z,4.60
2023-05-01T10:48:52.104Z,4.25
2023-05-01T10:51:21.261Z,5.13
2023-05-01T10:53:50.389Z,4.25
2023-05-01T10:56:44.000Z,5.03
2023-05-01T10:59:12.998Z,4.70
2023-05-01T11:01:41.684Z,5.93
2023-05-01T11:04:53.939Z,3.90
2023-05-01T11:07:23.574Z,4.40
2023-05-01T11:09:54.978Z,4.32
2023-05-01T11:12:54.425Z,6.43
2023-05-01T11:15:32.137Z,5.65
2023-05-01T11:18:00.091Z,4.00
2023-05-01T11:20:50.491Z,4.75
2023-05-01T11:23:21.982Z,4.25
2023-05-01T11:25:52.772Z,4.05
2023-05-01T11:28:22.520Z,4.28
2023-05-01T11:30:51.705Z,4.22
2023-05-01T11:33:28.461Z,4.22
2023-05-01T11:36:00.635Z,4.25
2023-05-01T11:38:28.334Z,4.22
2023-05-01T11:40:59.052Z,4.38
2023-05-01T11:43:26.760Z,4.93
2023-05-01T11:46:03.827Z,4.13
2023-05-01T11:48:32.454Z,4.38
2023-05-01T11:51:00.155Z,4.03
2023-05-01T11:53:27.678Z,5.68
2023-05-01T11:55:55.298Z,4.30
2023-05-01T11:58:33.790Z,3.63
2023-05-01T12:01:03.265Z,3.95
2023-05-01T12:03:42.284Z,4.47
2023-05-01T12:06:10.997Z,4.25
2023-05-01T12:08:42.696Z,4.70
2023-05-01T12:11:10.470Z,4.93
2023-05-01T12:13:40.142Z,3.50
2023-05-01T12:16:09.431Z,4.82
2023-05-01T12:18:37.211Z,4.25
2023-05-01T12:21:04.743Z,4.38
2023-05-01T12:23:34.835Z,3.35
2023-05-01T12:26:03.867Z,3.85
2023-05-01T12:28:31.977Z,4.00
2023-05-01T12:31:05.264Z,3.65
2023-05-01T12:33:34.421Z,4.40
2023-05-01T12:36:11.842Z,4.38
2023-05-01T12:38:39.457Z,3.85
2023-05-01T12:41:09.444Z,3.90
2023-05-01T12:43:38.531Z,4.60
2023-05-01T12:46:07.626Z,4.00
2023-05-01T12:48:40.075Z,4.43
2023-05-01T12:51:07.971Z,3.47
2023-05-01T12:53:35.625Z,4.18
2023-05-01T12:56:03.372Z,4.95
2023-05-01T12:58:37.805Z,3.35
2023-05-01T13:01:06.272Z,3.63
2023-05-01T13:03:40.098Z,3.78
2023-05-01T13:06:09.024Z,3.70
2023-05-01T13:08:39.650Z,3.85
2023-05-01T13:11:13.024Z,3.67
2023-05-01T13:13:41.003Z,3.90
2023-05-01T13:16:12.421Z,4.45
2023-05-01T13:18:46.242Z,4.43
2023-05-01T13:21:16.694Z,4.75
2023-05-01T13:23:53.908Z,5.00
2023-05-01T13:26:27.491Z,5.10
2023-05-01T13:28:55.388Z,5.32
2023-05-01T13:31:22.887Z,6.57
2023-05-01T13:33:54.183Z,5.38
2023-05-01T13:36:26.875Z,5.82
2023-05-01T13:38:56.988Z,5.70
2023-05-01T13:41:26.685Z,5.90
2023-05-01T13:43:55.504Z,5.80
2023-05-01T13:46:24.521Z,6.38
2023-05-01T13:48:53.569Z,6.32
2023-05-01T13:51:23.157Z,7.00
2023-05-01T13:53:50.910Z,6.80
2023-05-01T13:56:18.505Z,8.23
2023-05-01T13:58:46.308Z,8.85
2023-05-01T14:01:16.364Z,8.60
2023-05-01T14:03:44.399Z,8.48
2023-05-01T14:06:15.110Z,7.85
2023-05-01T14:08:43.200Z,8.00
2023-05-01T14:11:11.628Z,8.98
2023-05-01T14:13:41.815Z,8.00
2023-05-01T14:16:11.470Z,8.38
2023-05-01T14:18:45.496Z,8.25
2023-05-01T14:21:16.225Z,7.88
2023-05-01T14:23:44.218Z,8.07
2023-05-01T14:26:12.967Z,8.00
2023-05-01T14:28:43.046Z,8.52
2023-05-01T14:31:10.673Z,9.48
2023-05-01T14:33:43.187Z,9.05
2023-05-01T14:36:10.702Z,9.75
2023-05-01T14:38:41.486Z,9.85
2023-05-01T14:41:12.926Z,10.10
2023-05-01T14:43:42.245Z,11.27
2023-05-01T14:46:09.773Z,10.45
2023-05-01T14:48:38.009Z,9.50
2023-05-01T14:51:06.593Z,9.75
2023-05-01T14:53:34.512Z,10.05
2023-05-01T14:56:03.316Z,10.52
2023-05-01T14:58:30.811Z,9.43
2023-05-01T15:00:58.339Z,10.43
2023-05-01T15:03:25.933Z,10.13
2023-05-01T15:05:53.609Z,8.48
2023-05-01T15:08:21.047Z,8.13
2023-05-01T15:10:48.515Z,7.60
2023-05-01T15:13:17.504Z,7.60
2023-05-01T15:15:44.967Z,7.85
2023-05-01T15:18:12.503Z,8.15
2023-05-01T15:20:40.090Z,6.65
2023-05-01T15:23:07.574Z,7.85
2023-05-01T15:25:35.024Z,7.78
2023-05-01T15:28:03.407Z,7.80
2023-05-01T15:30:32.388Z,7.28
2023-05-01T15:32:59.926Z,7.70
2023-05-01T15:35:27.636Z,8.35
2023-05-01T15:37:56.430Z,8.10
2023-05-01T15:40:23.906Z,7.60
2023-05-01T15:42:51.645Z,7.38
2023-05-01T15:45:19.850Z,7.45
2023-05-01T15:47:48.789Z,7.80
2023-05-01T15:50:16.296Z,7.80
2023-05-01T15:52:43.777Z,7.63
2023-05-01T15:55:12.655Z,7.97
2023-05-01T15:57:40.103Z,7.55
2023-05-01T16:00:10.526Z,8.05
2023-05-01T16:02:38.150Z,9.88
2023-05-01T16:05:08.458Z,7.40
2023-05-01T16:07:35.958Z,8.30
2023-05-01T16:10:03.762Z,8.10
2023-05-01T16:12:32.000Z,7.60
2023-05-01T16:15:02.196Z,7.65
2023-05-01T16:17:32.908Z,7.82
2023-05-01T16:20:01.528Z,6.75
2023-05-01T16:22:33.224Z,7.28
2023-05-01T16:25:01.184Z,9.43
2023-05-01T16:27:28.672Z,7.10
2023-05-01T16:29:56.210Z,7.32
2023-05-01T16:32:24.732Z,6.32
2023-05-01T16:34:52.295Z,7.63
2023-05-01T16:37:22.544Z,7.32
2023-05-01T16:39:51.700Z,7.70
2023-05-01T16:42:19.197Z,7.55
2023-05-01T16:44:46.759Z,8.15
2023-05-01T16:47:14.207Z,7.40
2023-05-01T16:49:42.695Z,7.53
2023-05-01T16:52:14.003Z,7.78
2023-05-01T16:54:41.524Z,7.53
2023-05-01T16:57:10.711Z,7.15
2023-05-01T16:59:38.578Z,7.05
2023-05-01T17:02:06.741Z,9.27
2023-05-01T17:04:34.306Z,7.60
2023-05-01T17:07:01.847Z,7.72
2023-05-01T17:09:29.391Z,8.05
2023-05-01T17:11:57.474Z,9.45
2023-05-01T17:14:28.561Z,8.52
2023-05-01T17:16:56.196Z,8.38
2023-05-01T17:19:23.851Z,7.85
2023-05-01T17:21:51.367Z,7.82
2023-05-01T17:24:18.979Z,8.23
2023-05-01T17:26:46.666Z,8.35
2023-05-01T17:29:14.107Z,8.50
2023-05-01T17:31:42.962Z,7.75
2023-05-01T17:34:10.429Z,8.52
2023-05-01T17:36:37.880Z,8.25
2023-05-01T17:39:05.315Z,9.40
2023-05-01T17:41:32.855Z,9.40
2023-05-01T17:44:00.402Z,9.07
2023-05-01T17:46:27.988Z,9.77
2023-05-01T17:48:57.217Z,9.32
2023-05-01T17:51:24.732Z,8.57
2023-05-01T17:53:52.837Z,10.18
2023-05-01T17:56:21.313Z,10.20
2023-05-01T17:58:48.749Z,10.07
2023-05-01T18:01:16.247Z,10.05
2023-05-01T18:03:43.877Z,9.45
2023-05-01T18:06:13.268Z,10.13
2023-05-01T18:08:41.409Z,9.90
2023-05-01T18:11:09.433Z,9.35
2023-05-01T18:13:39.532Z,10.02
2023-05-01T18:16:07.071Z,9.63
2023-05-01T18:18:34.570Z,9.23
2023-05-01T18:21:02.044Z,8.70
2023-05-01T18:23:30.893Z,9.05
2023-05-01T18:25:58.513Z,10.93
2023-05-01T18:28:26.888Z,9.88
2023-05-01T18:30:54.394Z,12.70
2023-05-01T18:33:22.536Z,9.68
2023-05-01T18:35:50.103Z,9.88
2023-05-01T18:38:17.552Z,9.32
2023-05-01T18:40:47.558Z,10.65
2023-05-01T18:43:15.582Z,10.98
2023-05-01T18:45:43.031Z,11.25
2023-05-01T18:48:11.925Z,12.05
2023-05-01T18:50:39.436Z,11.52
2023-05-01T18:53:06.919Z,11.80
2023-05-01T18:55:35.195Z,11.77
2023-05-01T18:58:04.137Z,12.23
2023-05-01T19:00:31.714Z,12.45
2023-05-01T19:02:59.210Z,11.63
2023-05-01T19:05:26.831Z,13.23
2023-05-01T19:07:58.981Z,12.88
2023-05-01T19:10:26.420Z,13.88
2023-05-01T19:12:53.895Z,14.27
2023-05-01T19:15:22.707Z,14.55
2023-05-01T19:17:50.991Z,15.10
2023-05-01T19:20:18.537Z,17.15
2023-05-01T19:22:46.070Z,15.10
2023-05-01T19:25:13.533Z,14.95
2023-05-01T19:27:42.621Z,15.20
2023-05-01T19:30:10.525Z,18.02
2023-05-01T19:32:39.366Z,17.23
2023-05-01T19:35:07.356Z,16.10
2023-05-01T19:37:34.813Z,15.57
2023-05-01T19:40:02.525Z,16.70
2023-05-01T19:42:31.041Z,15.60
2023-05-01T19:44:58.505Z,16.05
2023-05-01T19:47:26.045Z,16.77
2023-05-01T19:49:54.924Z,15.85
2023-05-01T19:52:22.380Z,15.23
2023-05-01T19:54:49.835Z,16.05
2023-05-01T19:57:17.801Z,15.95
2023-05-01T19:59:45.298Z,16.67
2023-05-01T20:02:12.816Z,18.63
2023-05-01T20:04:40.310Z,17.95
2023-05-01T20:07:09.183Z,17.77
2023-05-01T20:09:36.665Z,16.65
2023-05-01T20:12:04.440Z,17.15
2023-05-01T20:14:34.015Z,17.15
2023-05-01T20:17:01.970Z,18.10
2023-05-01T20:19:29.513Z,18.85
2023-05-01T20:21:56.990Z,17.63
2023-05-01T20:24:25.860Z,18.80
2023-05-01T20:26:53.881Z,18.95
2023-05-01T20:29:21.466Z,20.40
2023-05-01T20:31:50.339Z,18.38
2023-05-01T20:34:17.813Z,20.13
2023-05-01T20:36:45.275Z,19.95
2023-05-01T20:39:12.774Z,20.50
2023-05-01T20:41:41.628Z,21.45
2023-05-01T20:44:09.385Z,20.05
2023-05-01T20:46:37.045Z,20.73
2023-05-01T20:49:05.425Z,19.88
2023-05-01T20:51:33.008Z,20.35
2023-05-01T20:54:00.450Z,20.20
2023-05-01T20:56:27.931Z,19.00
2023-05-01T20:58:56.755Z,16.98
2023-05-01T21:01:24.245Z,17.65
2023-05-01T21:03:51.988Z,18.25
2023-05-01T21:06:19.656Z,14.70
2023-05-01T21:08:48.400Z,14.43
2023-05-01T21:11:15.890Z,15.55
2023-05-01T21:13:43.385Z,14.40
2023-05-01T21:16:15.545Z,14.65
2023-05-01T21:18:43.348Z,13.50
2023-05-01T21:21:11.127Z,14.75
2023-05-01T21:23:46.841Z,14.60
2023-05-01T21:26:15.477Z,13.98
2023-05-01T21:28:43.463Z,14.30
2023-05-01T21:31:13.627Z,16.00
2023-05-01T21:33:45.400Z,15.52
2023-05-01T21:36:14.749Z,14.80
2023-05-01T21:38:42.252Z,13.68
2023-05-01T21:41:10.615Z,13.63
2023-05-01T21:43:38.697Z,13.65
2023-05-01T21:46:06.428Z,13.90
2023-05-01T21:48:36.204Z,14.30
2023-05-01T21:51:04.359Z,14.45
2023-05-01T21:53:33.317Z,15.38
2023-05-01T21:56:01.125Z,15.68
2023-05-01T21:58:29.009Z,14.35
2023-05-01T22:00:56.539Z,14.65
2023-05-01T22:03:24.797Z,15.68
2023-05-01T22:05:53.964Z,15.30
2023-05-01T22:08:21.713Z,16.75
2023-05-01T22:10:49.283Z,18.23
2023-05-01T22:13:16.758Z,17.65
2023-05-01T22:15:44.356Z,21.80
2023-05-01T22:18:13.621Z,19.20
2023-05-01T22:20:41.102Z,20.75
2023-05-01T22:23:09.899Z,19.52
2023-05-01T22:25:37.370Z,20.33
2023-05-01T22:28:05.965Z,22.35
2023-05-01T22:30:34.723Z,25.35
2023-05-01T22:33:02.233Z,20.52
2023-05-01T22:35:30.203Z,23.67
2023-05-01T22:37:57.915Z,19.73
2023-05-01T22:40:26.713Z,21.52
2023-05-01T22:42:54.211Z,17.85
2023-05-01T22:45:21.757Z,18.98
2023-05-01T22:47:49.258Z,22.23
2023-05-01T22:50:16.936Z,21.63
2023-05-01T22:52:46.498Z,21.38
2023-05-01T22:55:14.286Z,21.83
2023-05-01T22:57:43.071Z,23.85
2023-05-01T23:00:13.775Z,25.55
2023-05-01T23:02:41.431Z,25.65
2023-05-01T23:05:10.306Z,28.23
2023-05-01T23:07:38.161Z,25.67
2023-05-01T23:10:06.488Z,29.13
2023-05-01T23:12:34.009Z,30.00
2023-05-01T23:15:02.796Z,30.15
2023-05-01T23:17:34.690Z,29.10
2023-05-01T23:20:02.494Z,29.15
2023-05-01T23:22:30.999Z,27.20
2023-05-01T23:24:58.480Z,30.92
2023-05-01T23:27:26.082Z,31.77
2023-05-01T23:29:56.506Z,28.40
2023-05-01T23:32:27.825Z,30.85
2023-05-01T23:34:56.614Z,29.87
2023-05-01T23:37:24.064Z,28.52
2023-05-01T23:39:53.460Z,31.15
2023-05-01T23:42:22.069Z,31.53
2023-05-01T23:44:49.714Z,26.52
2023-05-01T23:47:17.301Z,25.30
2023-05-01T23:49:46.178Z,28.33
2023-05-01T23:52:13.692Z,26.48
2023-05-01T23:54:41.133Z,23.45
2023-05-01T23:57:08.636Z,22.40
2023-05-01T23:59:36.781Z,21.95
